Time;durP1;ratioP1;P1;durP2;ratioP2;P2;SDS_P1;SDS_P2;PMS_P1;PMS_P2;Temp;Humidity;BMP_temperature;BMP_pressure;BME280_temperature;BME280_humidity;BME280_pressure;Samples;Min_cycle;Max_cycle;Signal;HPM_P1;HPM_P2
2023/03/18 00:00:08;;;;;;;11.40;9.18;;;9.60;99.90;;;;;;6249968;23;20328;-87
2023/03/18 00:02:36;;;;;;;11.65;8.70;;;9.70;99.90;;;;;;6225543;23;20788;-85
2023/03/18 00:05:06;;;;;;;12.50;8.40;;;9.70;99.90;;;;;;6251140;23;20352;-87
2023/03/18 00:07:33;;;;;;;12.75;9.10;;;9.70;99.90;;;;;;6218391;23;20426;-86
2023/03/18 00:09:59;;;;;;;11.05;8.55;;;9.70;99.90;;;;;;6220527;23;20353;-86
2023/03/18 00:12:25;;;;;;;11.05;9.07;;;9.80;99.90;;;;;;6246635;23;20333;-87
2023/03/18 00:14:51;;;;;;;11.88;8.93;;;9.80;99.90;;;;;;6220347;23;20763;-87
2023/03/18 00:17:17;;;;;;;12.95;9.50;;;9.70;99.90;;;;;;6247706;23;20337;-87
2023/03/18 00:19:43;;;;;;;11.23;8.77;;;9.60;99.90;;;;;;6221125;23;20374;-86
2023/03/18 00:22:09;;;;;;;11.23;8.65;;;9.50;99.90;;;;;;6222204;23;20382;-86
2023/03/18 00:24:36;;;;;;;11.95;9.07;;;9.40;99.90;;;;;;6232196;23;20367;-86
2023/03/18 00:27:05;;;;;;;11.23;9.10;;;9.50;99.90;;;;;;6269535;22;20343;-85
2023/03/18 00:29:38;;;;;;;13.20;8.38;;;9.60;99.90;;;;;;6238281;23;20359;-85
2023/03/18 00:32:04;;;;;;;11.15;8.30;;;9.50;99.90;;;;;;6222848;23;20351;-86
2023/03/18 00:34:30;;;;;;;12.43;9.02;;;9.50;99.90;;;;;;6246550;23;20332;-86
2023/03/18 00:36:56;;;;;;;13.65;8.82;;;9.30;99.90;;;;;;6219167;23;20379;-86
2023/03/18 00:39:25;;;;;;;11.53;8.67;;;9.30;99.90;;;;;;6219998;23;20859;-87
2023/03/18 00:41:55;;;;;;;11.60;8.38;;;9.30;99.90;;;;;;6219816;23;20431;-86
2023/03/18 00:44:24;;;;;;;12.18;9.38;;;9.20;99.90;;;;;;6247364;23;20356;-87
2023/03/18 00:46:49;;;;;;;11.85;8.27;;;9.20;99.90;;;;;;6219530;23;20344;-86
2023/03/18 00:49:16;;;;;;;12.65;8.30;;;9.20;99.90;;;;;;6248660;23;20606;-87
2023/03/18 00:51:42;;;;;;;12.02;8.93;;;9.10;99.90;;;;;;6250690;23;20340;-86
2023/03/18 00:54:11;;;;;;;15.43;9.63;;;9.00;99.90;;;;;;6221105;23;20336;-86
2023/03/18 00:56:39;;;;;;;11.75;7.95;;;9.00;99.90;;;;;;6247060;23;20340;-86
2023/03/18 00:59:05;;;;;;;12.43;9.02;;;9.00;99.90;;;;;;6195691;23;20359;-85
2023/03/18 01:01:32;;;;;;;12.20;8.70;;;8.90;99.90;;;;;;6247582;23;20360;-86
2023/03/18 01:03:58;;;;;;;11.68;8.52;;;8.80;99.90;;;;;;6246927;23;20352;-86
2023/03/18 01:06:27;;;;;;;11.57;8.57;;;8.70;99.90;;;;;;6220826;23;20345;-86
2023/03/18 01:08:54;;;;;;;9.80;8.02;;;8.80;99.90;;;;;;6247736;23;20333;-86
2023/03/18 01:11:20;;;;;;;9.35;7.78;;;8.80;99.90;;;;;;6247913;23;20328;-86
2023/03/18 01:13:46;;;;;;;11.75;8.80;;;8.80;99.90;;;;;;6246976;23;20336;-87
2023/03/18 01:16:14;;;;;;;13.02;9.02;;;8.60;99.90;;;;;;6220794;23;20397;-86
2023/03/18 01:18:40;;;;;;;12.13;8.30;;;8.60;99.90;;;;;;6219606;23;20360;-86
2023/03/18 01:21:07;;;;;;;11.10;8.57;;;8.60;99.90;;;;;;6220361;23;20355;-86
2023/03/18 01:23:34;;;;;;;10.10;8.37;;;8.70;99.90;;;;;;6252671;23;20354;-87
2023/03/18 01:26:01;;;;;;;10.93;8.68;;;8.70;99.90;;;;;;6224623;23;20406;-86
2023/03/18 01:28:27;;;;;;;11.52;8.07;;;8.80;99.90;;;;;;6221254;23;20340;-87
2023/03/18 01:30:54;;;;;;;10.95;8.13;;;8.80;99.90;;;;;;6220250;23;20373;-87
2023/03/18 01:33:21;;;;;;;12.50;8.27;;;8.80;99.90;;;;;;6219167;23;20792;-86
2023/03/18 01:35:56;;;;;;;11.90;7.90;;;8.70;99.90;;;;;;6220270;23;20387;-85
2023/03/18 01:38:22;;;;;;;11.77;7.80;;;8.70;99.90;;;;;;6247637;23;20382;-85
2023/03/18 01:40:49;;;;;;;11.30;8.35;;;8.80;99.90;;;;;;6248528;23;20336;-86
2023/03/18 01:43:23;;;;;;;13.27;8.55;;;8.80;99.90;;;;;;6246899;23;20332;-86
2023/03/18 01:45:55;;;;;;;10.68;8.77;;;8.80;99.90;;;;;;6221151;23;20344;-87
2023/03/18 01:48:24;;;;;;;10.45;7.80;;;8.80;99.90;;;;;;6220606;23;20817;-87
2023/03/18 01:50:55;;;;;;;12.07;8.63;;;8.80;99.90;;;;;;6247068;23;20341;-86
2023/03/18 01:53:25;;;;;;;11.55;7.95;;;8.80;99.90;;;;;;6220746;23;20659;-84
2023/03/18 01:55:51;;;;;;;13.13;8.27;;;8.80;99.90;;;;;;6245142;23;20366;-86
2023/03/18 01:58:30;;;;;;;11.60;7.97;;;8.80;99.90;;;;;;6220174;23;20822;-86
2023/03/18 02:01:12;;;;;;;9.30;7.60;;;8.90;99.90;;;;;;6220311;23;20375;-87
2023/03/18 02:03:41;;;;;;;11.43;7.93;;;8.90;99.90;;;;;;6247914;23;20628;-87
2023/03/18 02:06:08;;;;;;;8.88;7.57;;;8.90;99.90;;;;;;6222072;23;20347;-87
2023/03/18 02:08:36;;;;;;;9.38;7.50;;;8.90;99.90;;;;;;6221464;23;20348;-86
2023/03/18 02:11:02;;;;;;;11.80;7.40;;;8.90;99.90;;;;;;6222111;23;20448;-87
2023/03/18 02:13:28;;;;;;;10.20;8.13;;;8.90;99.90;;;;;;6221489;23;20511;-87
2023/03/18 02:16:03;;;;;;;10.10;7.30;;;8.90;99.90;;;;;;6249252;23;20423;-86
2023/03/18 02:18:46;;;;;;;9.35;7.65;;;9.20;99.90;;;;;;6223570;23;20431;-87
2023/03/18 02:21:36;;;;;;;12.75;8.07;;;9.20;99.90;;;;;;6249964;23;20332;-87
2023/03/18 02:24:21;;;;;;;10.38;7.88;;;9.20;99.90;;;;;;6221850;23;20356;-86
2023/03/18 02:27:04;;;;;;;11.83;7.90;;;9.20;99.90;;;;;;6248697;23;20333;-86
2023/03/18 02:29:35;;;;;;;13.85;7.75;;;9.10;99.90;;;;;;6248909;23;20332;-86
2023/03/18 02:32:04;;;;;;;11.75;7.68;;;9.10;99.90;;;;;;6223042;23;20484;-85
2023/03/18 02:34:32;;;;;;;10.63;7.75;;;9.20;99.90;;;;;;6227187;23;20336;-85
2023/03/18 02:36:58;;;;;;;9.35;7.97;;;9.30;99.90;;;;;;6254890;23;20333;-86
2023/03/18 02:39:23;;;;;;;11.07;7.97;;;9.20;99.90;;;;;;6227668;23;20385;-86
2023/03/18 02:41:49;;;;;;;10.10;7.73;;;9.20;99.90;;;;;;6223654;23;20815;-87
2023/03/18 02:44:16;;;;;;;9.17;7.13;;;9.30;99.90;;;;;;6245621;23;20714;-86
2023/03/18 02:46:55;;;;;;;11.40;7.63;;;9.20;99.90;;;;;;6247112;23;20344;-88
2023/03/18 02:49:23;;;;;;;10.63;7.80;;;9.20;99.90;;;;;;6220806;23;20672;-85
2023/03/18 02:51:50;;;;;;;11.45;7.57;;;9.10;99.90;;;;;;6221660;23;20348;-85
2023/03/18 02:54:20;;;;;;;11.68;7.90;;;9.20;99.90;;;;;;6221202;23;20348;-88
2023/03/18 02:56:46;;;;;;;10.55;8.13;;;9.30;99.90;;;;;;6248330;23;20336;-85
2023/03/18 02:59:12;;;;;;;9.93;7.90;;;9.20;99.90;;;;;;6253039;23;20336;-85
2023/03/18 03:04:15;;;;;;;11.02;7.53;;;9.20;99.90;;;;;;6233803;22;20380;-86
2023/03/18 03:06:41;;;;;;;9.10;7.38;;;9.10;99.90;;;;;;6217869;23;20383;-87
2023/03/18 03:09:08;;;;;;;11.93;8.15;;;9.00;99.90;;;;;;6218900;23;20356;-85
2023/03/18 03:11:35;;;;;;;11.43;8.30;;;8.90;99.90;;;;;;6219566;23;20459;-89
2023/03/18 03:14:01;;;;;;;9.95;7.57;;;8.90;99.90;;;;;;6245783;23;20360;-87
2023/03/18 03:16:27;;;;;;;13.77;8.10;;;8.90;99.90;;;;;;6218425;23;21067;-87
2023/03/18 03:18:53;;;;;;;9.73;7.75;;;8.90;99.90;;;;;;6218895;23;20874;-86
2023/03/18 03:21:19;;;;;;;12.03;7.80;;;9.00;99.90;;;;;;6219131;23;20344;-87
2023/03/18 03:23:46;;;;;;;10.38;7.65;;;9.00;99.90;;;;;;6219071;23;20371;-86
2023/03/18 03:26:13;;;;;;;10.93;8.38;;;8.80;99.90;;;;;;6219405;23;20356;-86
2023/03/18 03:28:39;;;;;;;11.73;7.88;;;8.90;99.90;;;;;;6218664;23;20523;-87
2023/03/18 03:31:05;;;;;;;11.27;7.70;;;8.80;99.90;;;;;;6218620;23;20352;-86
2023/03/18 03:33:32;;;;;;;10.73;7.65;;;8.80;99.90;;;;;;6218668;23;20442;-86
2023/03/18 03:35:58;;;;;;;10.65;7.70;;;8.80;99.90;;;;;;6245790;23;20351;-88
2023/03/18 03:38:24;;;;;;;11.70;8.25;;;8.70;99.90;;;;;;6245039;23;20344;-87
2023/03/18 03:40:50;;;;;;;10.82;7.80;;;8.50;99.90;;;;;;6245633;23;20348;-86
2023/03/18 03:43:16;;;;;;;11.18;7.75;;;8.70;99.90;;;;;;6245289;23;20348;-87
2023/03/18 03:45:43;;;;;;;11.73;7.78;;;8.70;99.90;;;;;;6247118;23;20426;-88
2023/03/18 03:48:11;;;;;;;11.18;7.85;;;8.60;99.90;;;;;;6248605;23;20412;-87
2023/03/18 03:50:38;;;;;;;11.17;7.80;;;8.60;99.90;;;;;;6223408;23;20352;-87
2023/03/18 03:53:05;;;;;;;13.50;8.27;;;8.50;99.90;;;;;;6247959;23;20795;-86
2023/03/18 03:55:32;;;;;;;11.93;8.10;;;8.40;99.90;;;;;;6218083;23;20420;-86
2023/03/18 03:57:58;;;;;;;11.15;7.80;;;8.30;99.90;;;;;;6211405;23;20387;-85
2023/03/18 04:00:24;;;;;;;11.02;7.75;;;8.20;99.90;;;;;;6230995;23;20384;-86
2023/03/18 04:02:53;;;;;;;10.48;8.18;;;8.20;99.90;;;;;;6206233;23;20399;-87
2023/03/18 04:05:22;;;;;;;11.57;8.20;;;8.10;99.90;;;;;;6231572;23;20371;-86
2023/03/18 04:07:48;;;;;;;21.60;16.67;;;8.10;99.90;;;;;;6203397;23;20364;-87
2023/03/18 04:10:19;;;;;;;19.58;14.70;;;8.00;99.90;;;;;;6230428;23;20416;-84
2023/03/18 04:12:46;;;;;;;15.57;12.05;;;7.90;99.90;;;;;;6238258;23;20407;-85
2023/03/18 04:15:14;;;;;;;9.70;7.60;;;8.00;99.90;;;;;;6245386;22;20328;-86
2023/03/18 04:17:40;;;;;;;11.90;8.10;;;8.00;99.90;;;;;;6228136;22;20375;-87
2023/03/18 04:20:06;;;;;;;9.65;7.45;;;8.10;99.90;;;;;;6220188;22;20414;-85
2023/03/18 04:22:32;;;;;;;10.90;8.00;;;8.10;99.90;;;;;;6205892;23;20883;-85
2023/03/18 04:24:58;;;;;;;10.73;7.57;;;8.10;99.90;;;;;;6203989;23;20423;-88
2023/03/18 04:27:25;;;;;;;11.10;7.80;;;8.10;99.90;;;;;;6210279;23;20822;-86
2023/03/18 04:29:51;;;;;;;11.17;7.57;;;8.10;99.90;;;;;;6218572;23;20360;-88
2023/03/18 04:32:16;;;;;;;11.07;7.87;;;8.10;99.90;;;;;;6218713;23;20444;-88
2023/03/18 04:34:43;;;;;;;12.60;8.20;;;8.10;99.90;;;;;;6216213;23;20349;-87
2023/03/18 04:37:09;;;;;;;10.93;7.20;;;7.90;99.90;;;;;;6244515;23;20344;-85
2023/03/18 04:39:35;;;;;;;9.20;7.23;;;7.80;99.90;;;;;;6243382;23;20348;-87
2023/03/18 04:42:00;;;;;;;9.60;7.47;;;7.80;99.90;;;;;;6242305;23;20360;-84
2023/03/18 04:44:27;;;;;;;9.70;7.50;;;7.80;99.90;;;;;;6244861;23;20677;-86
2023/03/18 04:46:52;;;;;;;10.82;7.88;;;7.80;99.90;;;;;;6244294;23;20336;-86
2023/03/18 04:49:19;;;;;;;9.83;7.67;;;7.60;99.90;;;;;;6217744;23;20375;-85
2023/03/18 04:51:45;;;;;;;11.00;7.63;;;7.50;99.90;;;;;;6243725;23;20842;-87
2023/03/18 04:54:11;;;;;;;11.73;7.97;;;7.40;99.90;;;;;;6220337;23;20671;-86
2023/03/18 04:56:38;;;;;;;10.43;7.95;;;7.30;99.90;;;;;;6216837;23;21201;-89
2023/03/18 04:59:04;;;;;;;13.07;8.13;;;7.30;99.90;;;;;;6216096;23;20818;-84
2023/03/18 05:01:30;;;;;;;10.77;7.55;;;7.30;99.90;;;;;;6216898;23;20358;-85
2023/03/18 05:03:56;;;;;;;10.90;7.93;;;7.20;99.90;;;;;;6214489;23;20422;-86
2023/03/18 05:06:24;;;;;;;10.07;7.95;;;7.10;99.90;;;;;;6243172;23;20779;-86
2023/03/18 05:08:50;;;;;;;10.02;8.10;;;7.10;99.90;;;;;;6242237;23;20795;-86
2023/03/18 05:11:17;;;;;;;9.87;7.97;;;7.20;99.90;;;;;;6243485;23;20383;-87
2023/03/18 05:13:43;;;;;;;10.75;7.60;;;7.20;99.90;;;;;;6216558;23;20352;-84
2023/03/18 05:16:09;;;;;;;9.82;7.65;;;7.10;99.90;;;;;;6216737;23;20398;-87
2023/03/18 05:18:36;;;;;;;11.38;7.85;;;6.90;99.90;;;;;;6245203;23;20363;-87
2023/03/18 05:21:03;;;;;;;10.32;7.63;;;6.70;99.90;;;;;;6247160;23;20787;-85
2023/03/18 05:23:30;;;;;;;10.40;7.53;;;6.70;99.90;;;;;;6247118;23;20413;-86
2023/03/18 05:25:56;;;;;;;11.05;7.80;;;6.70;99.90;;;;;;6219794;23;20423;-87
2023/03/18 05:28:22;;;;;;;10.13;7.60;;;6.60;99.90;;;;;;6218709;23;20498;-86
2023/03/18 05:30:48;;;;;;;10.23;7.53;;;6.60;99.90;;;;;;6245913;23;20344;-86
2023/03/18 05:33:14;;;;;;;11.27;7.87;;;6.60;99.90;;;;;;6218616;23;20353;-88
2023/03/18 05:35:40;;;;;;;9.73;6.88;;;6.60;99.90;;;;;;6245623;23;20344;-85
2023/03/18 05:38:06;;;;;;;10.80;7.47;;;6.70;99.90;;;;;;6243823;23;20431;-88
2023/03/18 05:40:33;;;;;;;11.68;7.78;;;6.80;99.90;;;;;;6218786;23;20348;-85
2023/03/18 05:42:59;;;;;;;9.63;7.50;;;6.80;99.90;;;;;;6219237;23;20352;-85
2023/03/18 05:45:25;;;;;;;8.83;6.80;;;6.70;99.90;;;;;;6216380;23;20379;-87
2023/03/18 05:47:51;;;;;;;10.82;7.38;;;6.70;99.90;;;;;;6215690;23;20649;-86
2023/03/18 05:50:27;;;;;;;8.00;6.80;;;6.70;99.90;;;;;;6216490;23;20400;-87
2023/03/18 05:52:53;;;;;;;9.85;7.05;;;6.80;99.90;;;;;;6216966;23;20352;-85
2023/03/18 05:55:19;;;;;;;9.53;7.10;;;6.80;99.90;;;;;;6245435;23;20394;-85
2023/03/18 05:57:47;;;;;;;8.97;7.20;;;6.70;99.90;;;;;;6245126;23;20404;-85
2023/03/18 06:00:14;;;;;;;13.17;8.13;;;6.70;99.90;;;;;;6218668;23;20817;-87
2023/03/18 06:02:40;;;;;;;9.77;6.78;;;6.80;99.90;;;;;;6219149;23;20656;-84
2023/03/18 06:05:09;;;;;;;7.88;6.57;;;6.90;99.90;;;;;;6219092;23;20390;-85
2023/03/18 06:07:35;;;;;;;10.38;7.32;;;6.90;99.90;;;;;;6219614;23;20363;-85
2023/03/18 06:10:01;;;;;;;9.23;7.22;;;6.90;99.90;;;;;;6245559;23;20360;-85
2023/03/18 06:12:27;;;;;;;10.27;7.45;;;6.80;99.90;;;;;;6246726;23;20351;-87
2023/03/18 06:14:53;;;;;;;8.13;6.88;;;6.70;99.90;;;;;;6246322;23;20356;-86
2023/03/18 06:17:20;;;;;;;9.55;6.60;;;6.70;99.90;;;;;;6246511;23;20333;-85
2023/03/18 06:19:47;;;;;;;10.13;7.03;;;6.80;99.90;;;;;;6246782;23;20340;-89
2023/03/18 06:22:14;;;;;;;7.88;6.95;;;7.10;99.90;;;;;;6218702;23;20364;-86
2023/03/18 06:24:40;;;;;;;8.57;6.90;;;7.30;99.90;;;;;;6219542;23;20858;-90
2023/03/18 06:27:05;;;;;;;10.80;7.53;;;7.50;99.90;;;;;;6245398;23;20360;-84
2023/03/18 06:29:32;;;;;;;12.45;8.27;;;7.60;99.90;;;;;;6246142;23;20332;-87
2023/03/18 06:31:58;;;;;;;10.10;7.38;;;7.80;99.90;;;;;;6246864;23;20347;-89
2023/03/18 06:34:24;;;;;;;12.80;8.40;;;8.10;99.90;;;;;;6248595;23;20369;-85
2023/03/18 06:36:51;;;;;;;10.25;7.90;;;8.20;99.90;;;;;;6221065;23;20377;-87
2023/03/18 06:39:17;;;;;;;10.98;8.32;;;8.70;99.90;;;;;;6229288;23;20440;-88
2023/03/18 06:41:43;;;;;;;11.05;8.30;;;9.10;99.90;;;;;;6223981;23;20360;-87
2023/03/18 06:44:10;;;;;;;15.15;9.00;;;9.40;99.90;;;;;;6222669;23;20376;-85
2023/03/18 06:46:36;;;;;;;10.82;7.90;;;9.60;99.90;;;;;;6222154;23;20348;-86
2023/03/18 06:49:02;;;;;;;10.50;7.55;;;9.70;99.90;;;;;;6222019;23;20348;-87
2023/03/18 06:51:27;;;;;;;10.05;7.63;;;9.80;99.90;;;;;;6221651;23;20364;-88
2023/03/18 06:53:54;;;;;;;10.57;8.13;;;9.90;99.90;;;;;;6223576;23;20922;-87
2023/03/18 06:56:20;;;;;;;11.23;7.50;;;10.00;99.90;;;;;;6255724;23;20369;-87
2023/03/18 06:58:46;;;;;;;11.18;7.63;;;10.00;99.90;;;;;;6252420;23;20347;-86
2023/03/18 07:01:12;;;;;;;9.48;7.05;;;10.00;99.90;;;;;;6238106;22;20962;-86
2023/03/18 07:03:38;;;;;;;11.02;7.32;;;10.30;99.90;;;;;;6242475;22;20399;-84
2023/03/18 07:06:05;;;;;;;12.40;7.65;;;10.60;99.90;;;;;;6230423;23;20356;-89
2023/03/18 07:08:31;;;;;;;11.15;7.47;;;10.80;99.90;;;;;;6226067;23;20431;-85
2023/03/18 07:10:56;;;;;;;8.60;7.40;;;10.70;99.90;;;;;;6250138;23;20406;-87
2023/03/18 07:13:22;;;;;;;12.32;7.63;;;10.60;99.90;;;;;;6251794;23;20367;-86
2023/03/18 07:15:48;;;;;;;10.02;7.68;;;10.90;99.90;;;;;;6224579;23;20715;-87
2023/03/18 07:18:14;;;;;;;11.20;7.80;;;11.10;99.90;;;;;;6221427;23;20486;-90
2023/03/18 07:20:40;;;;;;;10.43;7.20;;;11.20;99.90;;;;;;6223317;23;20416;-89
2023/03/18 07:23:06;;;;;;;9.52;7.35;;;11.20;99.90;;;;;;6249788;23;20372;-90
2023/03/18 07:25:32;;;;;;;9.80;7.32;;;11.40;99.90;;;;;;6251373;23;20364;-86
2023/03/18 07:28:02;;;;;;;10.27;7.67;;;11.80;99.90;;;;;;6225363;23;20349;-87
2023/03/18 07:30:27;;;;;;;10.40;7.43;;;11.80;99.90;;;;;;6250176;23;20372;-88
2023/03/18 07:32:54;;;;;;;11.65;8.00;;;11.90;99.90;;;;;;6223265;23;20367;-90
2023/03/18 07:35:20;;;;;;;9.90;7.87;;;11.90;99.90;;;;;;6222961;23;20340;-90
2023/03/18 07:37:46;;;;;;;12.90;7.60;;;11.60;99.90;;;;;;6223432;23;20414;-85
2023/03/18 07:40:12;;;;;;;10.38;7.60;;;11.50;99.90;;;;;;6221227;23;20359;-84
2023/03/18 07:42:38;;;;;;;10.98;8.13;;;11.70;99.90;;;;;;6248070;23;20341;-86
2023/03/18 07:45:06;;;;;;;12.45;8.65;;;11.70;99.90;;;;;;6221528;23;20376;-84
2023/03/18 07:47:32;;;;;;;12.90;7.85;;;11.70;99.90;;;;;;6246409;23;20364;-88
2023/03/18 07:49:59;;;;;;;10.50;7.22;;;11.60;99.90;;;;;;6221215;23;20891;-85
2023/03/18 07:52:25;;;;;;;10.65;7.65;;;12.30;99.90;;;;;;6248045;23;20356;-86
2023/03/18 07:54:51;;;;;;;9.10;7.20;;;12.80;99.90;;;;;;6219706;23;20348;-86
2023/03/18 07:57:17;;;;;;;9.55;7.38;;;12.30;99.90;;;;;;6246450;23;20813;-87
2023/03/18 07:59:44;;;;;;;9.70;7.17;;;11.90;99.90;;;;;;6218397;23;20360;-88
2023/03/18 08:02:14;;;;;;;11.13;7.40;;;11.70;99.90;;;;;;6246898;23;20340;-85
2023/03/18 08:04:42;;;;;;;10.65;7.63;;;11.60;99.90;;;;;;6219872;23;20402;-88
2023/03/18 08:07:09;;;;;;;9.55;7.05;;;11.60;99.90;;;;;;6247984;23;20416;-88
2023/03/18 08:09:35;;;;;;;10.30;7.70;;;12.10;99.90;;;;;;6221586;23;20923;-87
2023/03/18 08:12:01;;;;;;;11.98;6.82;;;12.60;99.90;;;;;;6223223;23;20351;-85
2023/03/18 08:14:27;;;;;;;11.13;7.32;;;12.90;99.90;;;;;;6223136;23;20356;-86
2023/03/18 08:16:52;;;;;;;11.50;7.40;;;12.80;99.90;;;;;;6223617;23;20356;-85
2023/03/18 08:19:18;;;;;;;9.60;7.40;;;12.50;99.90;;;;;;6225945;23;20351;-84
2023/03/18 08:21:44;;;;;;;11.20;7.72;;;12.60;99.90;;;;;;6225282;23;20834;-87
2023/03/18 08:24:10;;;;;;;9.15;6.63;;;12.40;99.90;;;;;;6249171;23;20665;-86
2023/03/18 08:26:37;;;;;;;9.25;6.85;;;12.20;99.90;;;;;;6248841;23;20363;-85
2023/03/18 08:29:05;;;;;;;10.35;7.00;;;11.90;99.90;;;;;;6248106;23;20344;-90
2023/03/18 08:31:32;;;;;;;10.68;7.22;;;11.90;99.90;;;;;;6248726;23;20405;-88
2023/03/18 08:33:58;;;;;;;9.82;6.82;;;11.90;99.90;;;;;;6221658;23;21217;-87
2023/03/18 08:36:27;;;;;;;11.85;7.13;;;12.30;99.90;;;;;;6219421;23;20360;-87
2023/03/18 08:38:54;;;;;;;12.73;7.38;;;12.30;99.90;;;;;;6221398;23;20353;-86
2023/03/18 08:41:21;;;;;;;10.02;7.05;;;12.50;99.90;;;;;;6247355;23;20329;-84
2023/03/18 08:43:48;;;;;;;9.07;7.25;;;12.70;99.90;;;;;;6227452;23;20349;-85
2023/03/18 08:46:14;;;;;;;9.17;7.27;;;13.10;99.90;;;;;;6251770;23;20340;-83
2023/03/18 08:48:40;;;;;;;20.60;7.43;;;13.00;99.90;;;;;;6223517;23;20458;-86
2023/03/18 08:51:09;;;;;;;8.57;7.30;;;12.80;99.90;;;;;;6224708;23;20368;-84
2023/03/18 08:53:37;;;;;;;9.48;6.88;;;12.60;99.90;;;;;;6223240;23;20446;-87
2023/03/18 08:56:06;;;;;;;13.05;7.07;;;12.60;99.90;;;;;;6247722;23;20340;-87
2023/03/18 08:58:32;;;;;;;11.10;6.82;;;13.50;99.90;;;;;;6227162;23;20348;-87
2023/03/18 09:01:04;;;;;;;7.47;6.00;;;14.50;99.90;;;;;;6246339;23;20360;-86
2023/03/18 09:03:30;;;;;;;11.32;6.55;;;14.90;99.90;;;;;;6218958;23;20389;-86
2023/03/18 09:05:56;;;;;;;8.57;6.40;;;15.20;99.90;;;;;;6221698;23;20368;-87
2023/03/18 09:08:29;;;;;;;11.20;6.87;;;15.20;99.90;;;;;;6220927;23;20823;-85
2023/03/18 09:10:59;;;;;;;10.18;6.25;;;15.30;99.90;;;;;;6222056;23;20349;-85
2023/03/18 09:13:25;;;;;;;8.55;5.72;;;16.20;99.90;;;;;;6217468;23;20826;-77
2023/03/18 09:15:51;;;;;;;9.00;5.85;;;17.00;99.90;;;;;;6242473;23;20363;-79
2023/03/18 09:18:17;;;;;;;10.53;5.73;;;16.80;99.90;;;;;;6215120;23;20391;-79
2023/03/18 09:20:44;;;;;;;7.88;5.68;;;17.20;99.90;;;;;;6239723;23;20368;-88
2023/03/18 09:23:16;;;;;;;6.88;5.72;;;17.10;99.90;;;;;;6219416;23;20361;-88
2023/03/18 09:25:49;;;;;;;8.95;5.65;;;17.10;99.90;;;;;;6222233;23;20510;-88
2023/03/18 09:28:15;;;;;;;7.97;5.13;;;16.80;99.90;;;;;;6224014;23;20486;-87
2023/03/18 09:30:50;;;;;;;8.95;5.65;;;16.70;99.90;;;;;;6227833;23;20384;-88
2023/03/18 09:33:17;;;;;;;9.35;5.63;;;16.40;99.90;;;;;;6224696;23;20419;-89
2023/03/18 09:35:43;;;;;;;26.65;7.45;;;16.40;99.90;;;;;;6252625;23;20441;-88
2023/03/18 09:38:36;;;;;;;10.33;5.57;;;16.50;99.90;;;;;;6226815;23;20387;-89
2023/03/18 09:41:09;;;;;;;8.98;5.40;;;16.60;99.90;;;;;;6219445;23;20360;-89
2023/03/18 09:43:53;;;;;;;9.25;5.57;;;16.80;99.90;;;;;;6225063;23;20386;-88
2023/03/18 09:46:32;;;;;;;8.70;5.70;;;16.00;99.90;;;;;;6224806;23;20811;-89
2023/03/18 09:49:03;;;;;;;7.37;5.00;;;15.40;99.90;;;;;;6237287;23;20420;-88
2023/03/18 09:51:50;;;;;;;7.93;5.82;;;15.80;99.90;;;;;;6264427;23;20368;-89
2023/03/18 09:54:32;;;;;;;11.52;5.82;;;16.10;99.90;;;;;;6224898;23;20428;-87
2023/03/18 09:56:58;;;;;;;8.60;5.40;;;16.60;99.90;;;;;;6221589;23;20397;-86
2023/03/18 09:59:45;;;;;;;9.93;5.70;;;17.20;99.90;;;;;;6220066;23;20352;-88
2023/03/18 10:02:26;;;;;;;7.22;5.28;;;17.20;99.90;;;;;;6219125;23;20447;-86
2023/03/18 10:04:57;;;;;;;9.90;5.43;;;16.70;99.90;;;;;;6249324;23;20344;-88
2023/03/18 10:07:31;;;;;;;8.93;5.38;;;16.80;99.90;;;;;;6223155;23;20359;-88
2023/03/18 10:10:08;;;;;;;9.07;5.32;;;17.20;99.90;;;;;;6231588;23;20413;-87
2023/03/18 10:12:42;;;;;;;7.20;5.47;;;17.90;99.90;;;;;;6257406;23;20371;-88
2023/03/18 10:15:31;;;;;;;9.63;5.70;;;17.80;99.90;;;;;;6252385;23;20394;-89
2023/03/18 10:18:46;;;;;;;9.77;5.13;;;18.00;99.90;;;;;;6219801;23;20361;-87
2023/03/18 10:21:29;;;;;;;7.90;5.13;;;19.20;99.90;;;;;;6193537;23;20363;-88
2023/03/18 10:24:21;;;;;;;9.45;5.68;;;19.30;99.90;;;;;;6221122;23;20557;-87
2023/03/18 10:27:22;;;;;;;;;;;;;;;;;;;;;
2023/03/18 10:30:19;;;;;;;12.75;5.38;;;20.20;99.90;;;;;;6245926;23;20526;-86
2023/03/18 10:33:02;;;;;;;7.53;5.00;;;20.80;99.30;;;;;;6245099;23;20383;-86
2023/03/18 10:36:12;;;;;;;9.20;4.85;;;21.30;98.60;;;;;;6222305;23;20379;-88
2023/03/18 10:38:46;;;;;;;8.15;5.05;;;20.80;98.60;;;;;;6227691;23;20356;-87
2023/03/18 10:41:42;;;;;;;8.93;4.43;;;20.40;99.90;;;;;;6227682;23;20690;-88
2023/03/18 10:44:22;;;;;;;10.40;4.78;;;20.60;99.90;;;;;;6204096;23;20345;-87
2023/03/18 10:46:59;;;;;;;12.13;5.03;;;20.80;99.50;;;;;;6229514;23;20348;-88
2023/03/18 10:49:44;;;;;;;;;;;;;;;;;;;;;
2023/03/18 10:52:41;;;;;;;9.75;5.22;;;19.40;99.90;;;;;;6247741;23;20387;-86
2023/03/18 10:55:43;;;;;;;8.60;4.97;;;18.90;99.90;;;;;;6251940;23;20378;-85
2023/03/18 10:58:19;;;;;;;10.10;5.35;;;18.80;99.90;;;;;;6221000;23;21232;-85
2023/03/18 11:00:45;;;;;;;9.10;5.20;;;18.60;99.90;;;;;;6224104;23;20803;-85
2023/03/18 11:03:29;;;;;;;10.65;4.93;;;19.20;99.90;;;;;;6221245;23;20367;-88
2023/03/18 11:06:01;;;;;;;8.35;4.72;;;19.50;99.90;;;;;;6248886;23;20866;-86
2023/03/18 11:08:39;;;;;;;9.43;5.13;;;20.20;99.90;;;;;;6221991;23;20419;-85
2023/03/18 11:11:31;;;;;;;9.85;5.20;;;20.00;99.90;;;;;;6248952;23;20356;-86
2023/03/18 11:13:58;;;;;;;7.60;4.78;;;19.90;99.90;;;;;;6221114;23;20359;-86
2023/03/18 11:16:44;;;;;;;7.97;4.80;;;20.20;99.70;;;;;;6220943;23;20383;-86
2023/03/18 11:19:46;;;;;;;9.45;5.20;;;20.20;99.90;;;;;;6220010;23;20355;-87
2023/03/18 11:22:25;;;;;;;10.27;5.22;;;19.70;99.90;;;;;;6215535;23;20437;-84
2023/03/18 11:25:15;;;;;;;13.20;5.40;;;19.40;99.90;;;;;;6221922;23;20426;-85
2023/03/18 11:27:51;;;;;;;7.80;5.17;;;19.40;99.90;;;;;;6251728;23;20397;-85
2023/03/18 11:30:19;;;;;;;6.32;4.82;;;19.60;99.90;;;;;;6224872;23;20439;-84
2023/03/18 11:33:02;;;;;;;9.35;5.38;;;19.60;99.90;;;;;;6223539;23;20383;-87
2023/03/18 11:35:38;;;;;;;8.75;4.60;;;18.70;99.90;;;;;;6219576;23;20376;-84
2023/03/18 11:38:12;;;;;;;9.65;4.55;;;18.50;99.90;;;;;;6247185;23;20679;-85
2023/03/18 11:40:39;;;;;;;8.88;4.70;;;18.40;99.90;;;;;;6219479;23;20361;-85
2023/03/18 11:43:20;;;;;;;9.30;4.65;;;18.70;99.90;;;;;;6245143;23;20375;-85
2023/03/18 11:45:58;;;;;;;9.80;4.78;;;18.40;99.90;;;;;;6241984;23;20682;-85
2023/03/18 11:48:41;;;;;;;6.78;4.65;;;18.40;99.90;;;;;;6221752;23;20352;-87
2023/03/18 11:51:32;;;;;;;7.63;4.97;;;18.40;99.90;;;;;;6221367;23;20352;-87
2023/03/18 11:54:28;;;;;;;7.47;4.85;;;18.10;99.90;;;;;;6247881;23;20344;-87
2023/03/18 11:57:15;;;;;;;16.27;4.77;;;18.10;99.90;;;;;;6218772;23;20364;-87
2023/03/18 12:00:04;;;;;;;9.52;5.03;;;18.40;99.90;;;;;;6248796;23;20328;-87
2023/03/18 12:02:39;;;;;;;7.53;5.10;;;18.50;99.90;;;;;;6219083;23;20479;-86
2023/03/18 12:05:06;;;;;;;8.60;4.83;;;18.40;99.90;;;;;;6246428;23;20818;-86
2023/03/18 12:07:41;;;;;;;10.10;5.25;;;18.40;99.90;;;;;;6245403;23;20794;-87
2023/03/18 12:10:27;;;;;;;6.15;4.70;;;18.60;99.90;;;;;;6220763;23;20359;-86
2023/03/18 12:13:03;;;;;;;9.27;4.93;;;18.80;99.90;;;;;;6250864;23;20356;-86
2023/03/18 12:15:53;;;;;;;8.45;5.25;;;18.60;99.90;;;;;;6220500;23;20372;-87
2023/03/18 12:18:19;;;;;;;8.38;5.05;;;18.00;99.90;;;;;;6219155;23;20846;-87
2023/03/18 12:20:56;;;;;;;7.68;5.35;;;17.60;99.90;;;;;;6220512;23;21086;-87
2023/03/18 12:23:51;;;;;;;10.17;4.97;;;17.70;99.90;;;;;;6245974;23;20348;-87
2023/03/18 12:26:29;;;;;;;9.60;4.80;;;18.20;99.90;;;;;;6196027;23;20494;-87
2023/03/18 12:29:34;;;;;;;7.25;4.68;;;18.50;99.90;;;;;;6247201;23;20406;-86
2023/03/18 12:32:21;;;;;;;8.73;5.00;;;18.90;99.90;;;;;;6240358;23;20395;-86
2023/03/18 12:34:56;;;;;;;8.25;4.75;;;18.90;99.90;;;;;;6268199;23;20371;-85
2023/03/18 12:37:50;;;;;;;8.10;4.97;;;18.60;99.90;;;;;;6253735;23;20343;-87
2023/03/18 12:40:39;;;;;;;7.43;4.63;;;18.20;99.90;;;;;;6217389;23;20431;-87
2023/03/18 12:43:30;;;;;;;8.85;4.50;;;18.20;99.90;;;;;;6246922;23;20423;-87
2023/03/18 12:46:22;;;;;;;8.80;4.82;;;18.30;99.90;;;;;;6244975;23;20834;-89
2023/03/18 12:49:03;;;;;;;7.68;4.40;;;18.50;99.90;;;;;;6246271;23;20344;-86
2023/03/18 12:51:39;;;;;;;7.60;4.43;;;18.70;99.90;;;;;;6246507;23;20348;-87
2023/03/18 12:54:14;;;;;;;7.70;4.30;;;19.20;99.90;;;;;;6219922;23;20383;-86
2023/03/18 12:56:47;;;;;;;11.87;5.00;;;19.40;99.90;;;;;;6218568;23;20835;-86
2023/03/18 12:59:28;;;;;;;8.35;4.55;;;19.60;99.90;;;;;;6247629;23;20355;-88
2023/03/18 13:02:29;;;;;;;7.25;4.65;;;19.50;99.90;;;;;;6245180;23;20363;-86
2023/03/18 13:04:59;;;;;;;6.78;4.78;;;19.30;99.90;;;;;;6246525;23;20419;-86
2023/03/18 13:07:41;;;;;;;8.88;5.03;;;19.00;99.90;;;;;;6247304;23;20351;-86
2023/03/18 13:10:23;;;;;;;6.97;3.93;;;19.00;99.90;;;;;;6247878;23;20336;-87